AIRPORT_AIRPORT_METAR
METAR FOR LFBE
ADDS - METARS form results

(2007 UTC 18 October 2021)
Data provider http://aviationweather.gov/metar/data/
 
METAR text: LFBE 182000Z AUTO 06005KT CAVOK 12/11 Q1023 NOSIG
Conditions at: LFBE (BERGERAC/ROUMANI, FR) observed 2000 UTC 18 October 2021
Temperature: 12.0°C (54°F)
Dewpoint: 11.0°C (52°F) [RH = 94%]
Pressure (altimeter): 30.21 inches Hg (1023.0 mb)
Winds: from the ENE (60 degrees) at 6 MPH (5 knots; 2.6 m/s)
Visibility: 6 or more miles (10+ km)
Ceiling: ceiling and visibility are OK
Clouds: unknown
Weather: no significant weather observed at this time

METAR text: LFBE 181930Z AUTO 08005KT CAVOK 13/12 Q1023 NOSIG
Conditions at: LFBE (BERGERAC/ROUMANI, FR) observed 1930 UTC 18 October 2021
Temperature: 13.0°C (55°F)
Dewpoint: 12.0°C (54°F) [RH = 94%]
Pressure (altimeter): 30.21 inches Hg (1023.0 mb)
Winds: from the E (80 degrees) at 6 MPH (5 knots; 2.6 m/s)
Visibility: 6 or more miles (10+ km)
Ceiling: ceiling and visibility are OK
Clouds: unknown
Weather: no significant weather observed at this time

Forecast for: LFBE (BERGERAC/ROUMANI, FR)
Text: TAF LFBE 181100Z 1812/1912 13005KT CAVOK
Forecast period: 1200 to 1900 UTC 18 October 2021
Forecast type: FROM: standard forecast or significant change
Winds: from the SE (130 degrees) at 6 MPH (5 knots; 2.6 m/s)
Visibility: 6 or more miles (10+ km)
Ceiling: unknown
Clouds: missing
Weather: NSW  (no significant weather)
Text: BECMG 1819/1821 26005KT
Forecast period: 1900 UTC 18 October 2021 to 0500 UTC 19 October 2021
Forecast type: BECOMING: Conditions expected to become as follows by 2100 UTC 18 October 2021
Winds: from the W (260 degrees) at 6 MPH (5 knots; 2.6 m/s)
Visibility: 6 or more miles (10+ km)
Ceiling: unknown
Clouds: missing
Weather: NSW  (no significant weather)
Text: BECMG 1905/1907 14010KT
Forecast period: 0500 to 1200 UTC 19 October 2021
Forecast type: BECOMING: Conditions expected to become as follows by 0700 UTC 19 October 2021
Winds: from the SE (140 degrees) at 12 MPH (10 knots; 5.1 m/s)
Visibility: 6 or more miles (10+ km)
Ceiling: unknown
Clouds: missing
Weather: NSW  (no significant weather)

 AIRPORT_AIRPORT_MAP

 AIRPORT_RUNWAY_INFO
AIRPORT_RUNWAY 10 AIRPORT_RUNWAY_LENGTH 7234 ft AIRPORT_RUNWAY_WIDTH 148 ft
AIRPORT_RUNWAY_ELEVATION 170 ft AIRPORT_RUNWAY_THRESHOLD 687 ft AIRPORT_RUNWAY_HEADING 94
AIRPORT_RUNWAY 28 AIRPORT_RUNWAY_LENGTH 7234 ft AIRPORT_RUNWAY_WIDTH 148 ft
AIRPORT_RUNWAY_ELEVATION 161 ft AIRPORT_RUNWAY_THRESHOLD 804 ft AIRPORT_RUNWAY_HEADING 274

 AIRPORT_AIRPORT_FREQUENCIES
AIRPORT_AIRPORT_NAVAIDS_TYPE APP AIRPORT_AIRPORT_NAVAIDS_NAME AQUITAINE AIRPORT_AIRPORT_NAVAIDS_FREQ 119.275 MHZ
AIRPORT_AIRPORT_NAVAIDS_TYPE TWR AIRPORT_AIRPORT_NAVAIDS_NAME BERGERAC T AIRPORT_AIRPORT_NAVAIDS_FREQ 119.8 MHZ

 AIRPORT_AIRPORT_NAVAIDS
AIRPORT_AIRPORT_NAVAIDS_TYPE NDB AIRPORT_AIRPORT_NAVAIDS_NAME Bergerac AIRPORT_AIRPORT_NAVAIDS_FREQ 374 KHZ



Copyright © 2005-2021 - Virtuel Air Alsace - Tous droits réservés